createdAt,value
2017-07-30T00:01:36.793Z,74.29
2017-07-30T00:04:19.212Z,73.55
2017-07-30T00:06:20.645Z,73.42
2017-07-30T00:08:22.080Z,73.84
2017-07-30T00:11:04.520Z,73.52
2017-07-30T00:13:05.948Z,73.22
2017-07-30T00:15:07.404Z,73.52
2017-07-30T00:17:08.820Z,73.52
2017-07-30T00:19:10.261Z,72.78
2017-07-30T00:21:11.695Z,73.22
2017-07-30T00:23:13.125Z,73.03
2017-07-30T00:25:14.573Z,73.03
2017-07-30T00:27:16.005Z,73.26
2017-07-30T00:29:17.443Z,73.26
2017-07-30T00:31:18.873Z,72.97
2017-07-30T00:33:20.316Z,72.97
2017-07-30T00:36:02.737Z,73.36
2017-07-30T00:38:04.172Z,72.30
2017-07-30T00:40:05.605Z,72.58
2017-07-30T00:42:07.034Z,72.88
2017-07-30T00:44:08.475Z,72.39
2017-07-30T00:46:09.902Z,72.97
2017-07-30T00:48:11.344Z,72.68
2017-07-30T00:50:12.774Z,72.58
2017-07-30T00:52:14.208Z,72.68
2017-07-30T00:54:15.643Z,72.68
2017-07-30T00:56:17.076Z,72.30
2017-07-30T00:58:18.511Z,72.49
2017-07-30T01:00:19.946Z,72.49
2017-07-30T01:02:21.378Z,72.68
2017-07-30T01:04:22.813Z,72.58
2017-07-30T01:06:24.246Z,72.49
2017-07-30T01:09:06.679Z,72.58
2017-07-30T01:11:08.111Z,72.68
2017-07-30T01:13:09.543Z,72.97
2017-07-30T01:15:10.978Z,72.39
2017-07-30T01:17:12.408Z,72.39
2017-07-30T01:19:13.847Z,73.07
2017-07-30T01:21:15.281Z,72.58
2017-07-30T01:23:16.714Z,72.39
2017-07-30T01:25:59.136Z,72.39
2017-07-30T01:28:00.569Z,72.30
2017-07-30T01:30:02.005Z,72.39
2017-07-30T01:32:03.435Z,72.68
2017-07-30T01:34:04.868Z,73.26
2017-07-30T01:36:06.301Z,73.46
2017-07-30T01:38:07.744Z,72.88
2017-07-30T01:40:09.160Z,73.07
2017-07-30T01:42:10.624Z,72.88
2017-07-30T01:44:12.057Z,73.07
2017-07-30T01:46:13.491Z,72.39
2017-07-30T01:48:14.922Z,72.68
2017-07-30T01:50:16.352Z,72.78
2017-07-30T01:52:17.785Z,72.97
2017-07-30T01:54:19.220Z,72.88
2017-07-30T01:57:01.643Z,73.16
2017-07-30T01:59:03.072Z,73.46
2017-07-30T02:01:45.543Z,73.36
2017-07-30T02:03:46.975Z,73.65
2017-07-30T02:05:48.409Z,73.26
2017-07-30T02:07:49.839Z,73.55
2017-07-30T02:10:32.251Z,73.46
2017-07-30T02:12:33.690Z,73.74
2017-07-30T02:15:16.166Z,73.74
2017-07-30T02:17:17.595Z,74.52
2017-07-30T02:19:19.030Z,73.65
2017-07-30T02:21:20.461Z,74.13
2017-07-30T02:23:21.889Z,74.71
2017-07-30T02:25:23.325Z,75.10
2017-07-30T02:27:24.756Z,75.20
2017-07-30T02:29:26.189Z,75.10
2017-07-30T02:31:27.625Z,75.16
2017-07-30T02:33:29.057Z,75.06
2017-07-30T02:35:30.489Z,75.16
2017-07-30T02:37:31.926Z,75.97
2017-07-30T02:39:33.361Z,75.35
2017-07-30T02:41:34.783Z,75.87
2017-07-30T02:43:36.223Z,75.48
2017-07-30T02:45:37.656Z,75.45
2017-07-30T02:47:39.087Z,75.54
2017-07-30T02:49:40.516Z,75.45
2017-07-30T02:51:41.959Z,76.12
2017-07-30T02:53:43.399Z,75.93
2017-07-30T02:55:44.822Z,75.74
2017-07-30T02:57:46.272Z,76.22
2017-07-30T02:59:47.696Z,76.42
2017-07-30T03:01:49.152Z,76.32
2017-07-30T03:04:31.664Z,76.03
2017-07-30T03:06:33.120Z,76.12
2017-07-30T03:08:34.560Z,76.22
2017-07-30T03:10:35.995Z,76.51
2017-07-30T03:12:37.428Z,76.32
2017-07-30T03:14:38.855Z,76.32
2017-07-30T03:16:40.283Z,76.42
2017-07-30T03:18:41.716Z,75.93
2017-07-30T03:20:43.148Z,76.32
2017-07-30T03:22:44.582Z,76.42
2017-07-30T03:24:46.015Z,76.42
2017-07-30T03:26:47.445Z,77.00
2017-07-30T03:28:48.877Z,76.70
2017-07-30T03:30:50.320Z,76.67
2017-07-30T03:32:51.746Z,77.44
2017-07-30T03:34:53.179Z,76.57
2017-07-30T03:37:35.613Z,77.09
2017-07-30T03:39:37.041Z,76.70
2017-07-30T03:41:38.474Z,76.37
2017-07-30T03:43:39.911Z,77.15
2017-07-30T03:45:41.341Z,76.37
2017-07-30T03:47:42.769Z,76.67
2017-07-30T03:49:44.203Z,76.86
2017-07-30T03:51:45.639Z,77.34
2017-07-30T03:53:47.197Z,77.44
2017-07-30T03:55:48.615Z,77.34
2017-07-30T03:57:50.048Z,77.92
2017-07-30T03:59:51.478Z,77.83
2017-07-30T04:01:52.940Z,77.44
2017-07-30T04:03:54.504Z,77.83
2017-07-30T04:05:56.072Z,77.63
2017-07-30T04:07:57.585Z,77.63
2017-07-30T04:09:59.022Z,77.73
2017-07-30T04:12:00.540Z,77.44
2017-07-30T04:14:02.074Z,77.83
2017-07-30T04:16:03.605Z,77.83
2017-07-30T04:18:05.119Z,78.31
2017-07-30T04:20:06.661Z,78.17
2017-07-30T04:22:08.200Z,78.31
2017-07-30T04:24:10.015Z,78.21
2017-07-30T04:26:11.574Z,77.73
2017-07-30T04:28:13.096Z,78.31
2017-07-30T04:30:14.616Z,77.83
2017-07-30T04:32:16.122Z,77.83
2017-07-30T04:34:17.642Z,78.31
2017-07-30T04:37:00.074Z,78.31
2017-07-30T04:39:01.510Z,78.11
2017-07-30T04:41:02.945Z,78.02
2017-07-30T04:43:04.382Z,78.02
2017-07-30T04:45:05.825Z,78.31
2017-07-30T04:47:07.258Z,77.92
2017-07-30T04:49:08.693Z,78.11
2017-07-30T04:51:10.138Z,78.21
2017-07-30T04:53:11.563Z,78.31
2017-07-30T04:55:13.005Z,78.41
2017-07-30T04:57:14.435Z,78.31
2017-07-30T04:59:15.866Z,78.11
2017-07-30T05:01:17.309Z,77.92
2017-07-30T05:03:18.775Z,78.02
2017-07-30T05:05:20.206Z,78.11
2017-07-30T05:08:02.701Z,77.48
2017-07-30T05:10:04.138Z,77.67
2017-07-30T05:12:05.570Z,77.19
2017-07-30T05:14:06.998Z,77.38
2017-07-30T05:16:08.438Z,77.34
2017-07-30T05:18:09.868Z,77.19
2017-07-30T05:20:11.305Z,77.38
2017-07-30T05:22:12.736Z,77.48
2017-07-30T05:24:55.186Z,77.00
2017-07-30T05:26:56.620Z,77.67
2017-07-30T05:28:58.052Z,77.57
2017-07-30T05:30:59.485Z,76.90
2017-07-30T05:33:00.924Z,77.00
2017-07-30T05:35:02.358Z,77.00
2017-07-30T05:37:03.789Z,76.61
2017-07-30T05:39:05.270Z,76.70
2017-07-30T05:41:06.691Z,76.51
2017-07-30T05:43:08.134Z,77.48
2017-07-30T05:45:09.573Z,77.19
2017-07-30T05:47:11.010Z,76.90
2017-07-30T05:49:12.446Z,77.86
2017-07-30T05:51:13.880Z,76.80
2017-07-30T05:53:15.316Z,76.84
2017-07-30T05:55:16.757Z,77.22
2017-07-30T05:57:18.190Z,76.70
2017-07-30T05:59:19.630Z,77.00
2017-07-30T06:01:21.059Z,76.64
2017-07-30T06:03:22.496Z,76.70
2017-07-30T06:05:23.935Z,77.57
2017-07-30T06:07:25.372Z,76.45
2017-07-30T06:10:07.809Z,76.45
2017-07-30T06:12:09.246Z,75.78
2017-07-30T06:14:10.685Z,74.85
2017-07-30T06:16:12.211Z,74.55
2017-07-30T06:18:13.638Z,73.91
2017-07-30T06:20:15.106Z,72.95
2017-07-30T06:22:16.590Z,72.75
2017-07-30T06:24:18.092Z,72.75
2017-07-30T06:26:19.544Z,72.40
2017-07-30T06:28:21.049Z,70.11
2017-07-30T06:30:22.581Z,67.40
2017-07-30T06:32:24.237Z,63.88
2017-07-30T06:34:25.734Z,62.38
2017-07-30T06:36:27.275Z,60.57
2017-07-30T06:39:09.716Z,59.89
2017-07-30T06:41:52.143Z,63.78
2017-07-30T06:43:53.586Z,64.98
2017-07-30T06:45:55.026Z,65.72
2017-07-30T06:47:56.468Z,64.92
2017-07-30T06:49:57.922Z,62.55
2017-07-30T06:51:59.358Z,63.49
2017-07-30T06:54:00.803Z,61.25
2017-07-30T06:56:43.284Z,56.82
2017-07-30T06:58:44.714Z,53.27
2017-07-30T07:00:46.161Z,50.22
2017-07-30T07:02:47.637Z,47.53
2017-07-30T07:04:49.298Z,47.63
2017-07-30T07:06:50.747Z,45.98
2017-07-30T07:08:52.209Z,47.28
2017-07-30T07:10:53.683Z,48.26
2017-07-30T07:12:55.259Z,51.02
2017-07-30T07:14:56.939Z,54.23
2017-07-30T07:16:58.507Z,57.12
2017-07-30T07:19:00.036Z,57.20
2017-07-30T07:21:01.594Z,60.15
2017-07-30T07:23:03.124Z,61.35
2017-07-30T07:25:04.750Z,61.58
2017-07-30T07:27:47.203Z,62.45
2017-07-30T07:29:48.655Z,61.22
2017-07-30T07:31:50.098Z,61.58
2017-07-30T07:33:51.539Z,62.52
2017-07-30T07:35:52.981Z,63.23
2017-07-30T07:37:54.426Z,62.69
2017-07-30T07:39:55.876Z,61.14
2017-07-30T07:41:57.312Z,61.91
2017-07-30T07:43:58.750Z,62.30
2017-07-30T07:46:00.197Z,60.94
2017-07-30T07:48:01.639Z,61.91
2017-07-30T07:50:03.081Z,62.10
2017-07-30T07:52:04.605Z,62.79
2017-07-30T07:54:06.115Z,64.24
2017-07-30T07:56:07.661Z,62.30
2017-07-30T07:58:09.216Z,61.33
2017-07-30T08:00:50.678Z,61.24
2017-07-30T08:02:52.118Z,59.75
2017-07-30T08:04:53.688Z,60.24
2017-07-30T08:06:55.096Z,60.91
2017-07-30T08:08:56.538Z,59.66
2017-07-30T08:10:57.990Z,59.63
2017-07-30T08:12:59.451Z,60.57
2017-07-30T08:15:00.894Z,61.76
2017-07-30T08:17:02.332Z,61.36
2017-07-30T08:19:03.895Z,62.07
2017-07-30T08:21:05.429Z,61.40
2017-07-30T08:23:06.906Z,58.69
2017-07-30T08:25:08.361Z,59.84
2017-07-30T08:27:09.955Z,58.78
2017-07-30T08:29:11.537Z,58.39
2017-07-30T08:31:13.003Z,58.75
2017-07-30T08:33:14.522Z,59.53
2017-07-30T08:35:16.043Z,59.66
2017-07-30T08:37:17.539Z,59.84
2017-07-30T08:39:19.086Z,60.17
2017-07-30T08:41:20.591Z,59.10
2017-07-30T08:43:22.112Z,60.65
2017-07-30T08:45:23.645Z,60.07
2017-07-30T08:47:25.126Z,60.07
2017-07-30T08:49:26.630Z,61.01
2017-07-30T08:51:28.248Z,61.49
2017-07-30T08:53:30.225Z,62.46
2017-07-30T08:55:31.654Z,62.63
2017-07-30T08:57:33.118Z,63.69
2017-07-30T08:59:34.560Z,64.75
2017-07-30T09:01:36.008Z,65.34
2017-07-30T09:03:37.535Z,64.95
2017-07-30T09:05:39.094Z,65.85
2017-07-30T09:07:40.566Z,64.01
2017-07-30T09:09:42.129Z,64.66
2017-07-30T09:11:43.688Z,64.27
2017-07-30T09:13:45.124Z,65.27
2017-07-30T09:15:46.609Z,64.27
2017-07-30T09:17:48.199Z,64.95
2017-07-30T09:19:49.705Z,64.85
2017-07-30T09:21:51.176Z,64.20
2017-07-30T09:23:52.780Z,65.08
2017-07-30T09:25:54.336Z,64.59
2017-07-30T09:27:55.852Z,64.59
2017-07-30T09:29:57.322Z,64.98
2017-07-30T09:31:58.919Z,64.30
2017-07-30T09:34:00.449Z,63.98
2017-07-30T09:36:01.915Z,63.98
2017-07-30T09:38:03.434Z,64.50
2017-07-30T09:40:04.939Z,65.08
2017-07-30T09:42:06.548Z,64.14
2017-07-30T09:44:08.050Z,62.88
2017-07-30T09:46:09.613Z,62.62
2017-07-30T09:48:11.191Z,61.36
2017-07-30T09:50:12.769Z,60.49
2017-07-30T09:52:14.291Z,61.46
2017-07-30T09:54:15.850Z,61.07
2017-07-30T09:56:17.360Z,61.26
2017-07-30T09:58:18.899Z,62.13
2017-07-30T10:00:20.405Z,61.88
2017-07-30T10:02:21.956Z,60.52
2017-07-30T10:04:23.488Z,59.81
2017-07-30T10:06:25.046Z,60.39
2017-07-30T10:08:26.662Z,61.07
2017-07-30T10:10:28.182Z,60.75
2017-07-30T10:12:29.756Z,61.04
2017-07-30T10:14:31.289Z,61.91
2017-07-30T10:16:32.814Z,60.58
2017-07-30T10:18:34.364Z,61.17
2017-07-30T10:20:35.912Z,60.20
2017-07-30T10:22:37.420Z,61.46
2017-07-30T10:24:39.045Z,62.55
2017-07-30T10:26:40.598Z,60.71
2017-07-30T10:28:42.255Z,58.70
2017-07-30T10:30:43.766Z,58.70
2017-07-30T10:33:26.366Z,59.70
2017-07-30T10:35:27.799Z,56.28
2017-07-30T10:37:29.245Z,57.83
2017-07-30T10:39:30.798Z,55.89
2017-07-30T10:41:32.326Z,55.99
2017-07-30T10:43:33.796Z,55.89
2017-07-30T10:45:35.265Z,55.04
2017-07-30T10:47:36.728Z,55.43
2017-07-30T10:50:19.160Z,54.82
2017-07-30T10:52:20.595Z,54.72
2017-07-30T10:54:22.050Z,56.05
2017-07-30T10:56:23.504Z,56.13
2017-07-30T10:58:24.954Z,56.13
2017-07-30T11:00:26.392Z,57.09
2017-07-30T11:03:09.112Z,57.87
2017-07-30T11:05:51.550Z,57.68
2017-07-30T11:07:52.986Z,57.55
2017-07-30T11:09:54.433Z,58.42
2017-07-30T11:11:55.871Z,59.10
2017-07-30T11:13:57.315Z,59.33
2017-07-30T11:15:58.753Z,58.84
2017-07-30T11:18:41.215Z,57.61
2017-07-30T11:20:42.660Z,57.80
2017-07-30T11:22:44.098Z,57.80
2017-07-30T11:24:45.556Z,58.22
2017-07-30T11:26:47.013Z,56.28
2017-07-30T11:28:48.452Z,55.50
2017-07-30T11:30:49.907Z,55.24
2017-07-30T11:32:51.451Z,55.04
2017-07-30T11:34:53.006Z,52.69
2017-07-30T11:37:35.483Z,53.08
2017-07-30T11:39:36.905Z,54.14
2017-07-30T11:41:38.350Z,53.97
2017-07-30T11:43:39.789Z,52.42
2017-07-30T11:45:41.241Z,53.30
2017-07-30T11:47:42.689Z,52.62
2017-07-30T11:50:25.127Z,51.93
2017-07-30T11:52:26.585Z,52.33
2017-07-30T11:54:28.054Z,53.49
2017-07-30T11:56:29.496Z,50.68
2017-07-30T11:58:30.950Z,51.57
2017-07-30T12:00:32.394Z,51.16
2017-07-30T12:02:33.829Z,49.99
2017-07-30T12:04:35.270Z,50.09
2017-07-30T12:06:36.717Z,50.19
2017-07-30T12:08:38.207Z,51.06
2017-07-30T12:11:20.702Z,50.19
2017-07-30T12:13:22.144Z,51.06
2017-07-30T12:15:23.592Z,49.71
2017-07-30T12:17:25.036Z,51.65
2017-07-30T12:20:07.589Z,51.55
2017-07-30T12:22:09.158Z,50.19
2017-07-30T12:24:10.811Z,48.93
2017-07-30T12:26:12.277Z,48.57
2017-07-30T12:28:13.694Z,49.15
2017-07-30T12:30:15.148Z,48.27
2017-07-30T12:32:16.598Z,47.98
2017-07-30T12:34:18.082Z,48.58
2017-07-30T12:36:19.524Z,48.18
2017-07-30T12:38:20.965Z,48.64
2017-07-30T12:40:22.410Z,48.73
2017-07-30T12:42:23.854Z,50.77
2017-07-30T12:44:25.296Z,50.77
2017-07-30T12:47:07.739Z,49.97
2017-07-30T12:49:09.188Z,51.16
2017-07-30T12:51:10.637Z,50.77
2017-07-30T12:53:12.106Z,49.51
2017-07-30T12:55:13.549Z,48.64
2017-07-30T12:57:14.989Z,48.22
2017-07-30T12:59:16.432Z,48.88
2017-07-30T13:01:17.877Z,49.82
2017-07-30T13:03:19.310Z,50.31
2017-07-30T13:05:20.753Z,54.67
2017-07-30T13:07:22.197Z,56.20
2017-07-30T13:09:23.636Z,58.39
2017-07-30T13:11:25.112Z,59.17
2017-07-30T13:13:26.551Z,60.01
2017-07-30T13:15:27.991Z,61.36
2017-07-30T13:17:29.432Z,61.27
2017-07-30T13:19:30.872Z,61.66
2017-07-30T13:21:32.310Z,61.95
2017-07-30T13:23:33.767Z,62.43
2017-07-30T13:25:35.205Z,63.11
2017-07-30T13:27:36.650Z,63.53
2017-07-30T13:29:38.114Z,61.79
2017-07-30T13:31:39.537Z,62.56
2017-07-30T13:33:40.977Z,62.04
2017-07-30T13:35:42.417Z,62.46
2017-07-30T13:37:43.859Z,60.72
2017-07-30T13:39:45.306Z,61.59
2017-07-30T13:41:46.740Z,59.84
2017-07-30T13:43:48.180Z,58.30
2017-07-30T13:45:49.626Z,58.11
2017-07-30T13:47:51.062Z,57.84
2017-07-30T13:49:52.502Z,56.94
2017-07-30T13:51:53.944Z,57.71
2017-07-30T13:53:55.377Z,58.20
2017-07-30T13:55:56.825Z,56.56
2017-07-30T13:57:58.261Z,55.98
2017-07-30T13:59:59.704Z,56.20
2017-07-30T14:02:01.145Z,55.90
2017-07-30T14:04:02.588Z,56.41
2017-07-30T14:06:45.017Z,54.09
2017-07-30T14:08:46.462Z,53.99
2017-07-30T14:10:47.904Z,52.95
2017-07-30T14:12:49.346Z,52.47
2017-07-30T14:14:50.872Z,51.59
2017-07-30T14:16:52.310Z,52.76
2017-07-30T14:18:53.755Z,52.59
2017-07-30T14:20:55.198Z,50.82
2017-07-30T14:22:56.640Z,52.18
2017-07-30T14:24:58.080Z,51.59
2017-07-30T14:26:59.519Z,51.89
2017-07-30T14:29:00.967Z,50.34
2017-07-30T14:31:02.408Z,49.68
2017-07-30T14:33:03.847Z,50.74
2017-07-30T14:35:05.296Z,49.00
2017-07-30T14:37:06.736Z,50.87
2017-07-30T14:39:08.188Z,49.49
2017-07-30T14:41:09.627Z,50.26
2017-07-30T14:43:11.076Z,50.62
2017-07-30T14:45:12.551Z,52.56
2017-07-30T14:47:14.004Z,52.76
2017-07-30T14:49:15.452Z,53.47
2017-07-30T14:51:16.888Z,53.37
2017-07-30T14:53:18.330Z,51.59
2017-07-30T14:55:19.768Z,51.79
2017-07-30T14:57:21.210Z,53.41
2017-07-30T14:59:22.649Z,54.67
2017-07-30T15:01:24.088Z,54.96
2017-07-30T15:03:25.536Z,55.26
2017-07-30T15:05:27.034Z,55.22
2017-07-30T15:07:28.470Z,56.00
2017-07-30T15:09:29.921Z,56.10
2017-07-30T15:11:31.411Z,56.20
2017-07-30T15:13:32.902Z,57.23
2017-07-30T15:15:34.472Z,63.04
2017-07-30T15:17:35.977Z,64.79
2017-07-30T15:19:37.483Z,68.08
2017-07-30T15:21:39.115Z,67.18
2017-07-30T15:23:40.559Z,64.53
2017-07-30T15:25:42.003Z,64.72
2017-07-30T15:27:43.458Z,65.24
2017-07-30T15:29:44.899Z,64.66
2017-07-30T15:31:46.337Z,62.34
2017-07-30T15:33:47.781Z,61.27
2017-07-30T15:35:49.242Z,61.18
2017-07-30T15:37:50.701Z,58.17
2017-07-30T15:39:52.136Z,60.50
2017-07-30T15:41:53.580Z,60.17
2017-07-30T15:43:55.029Z,60.30
2017-07-30T15:45:56.462Z,58.07
2017-07-30T15:47:57.905Z,58.95
2017-07-30T15:49:59.341Z,58.82
2017-07-30T15:52:00.778Z,59.01
2017-07-30T15:54:02.213Z,60.17
2017-07-30T15:56:03.656Z,61.43
2017-07-30T15:58:05.094Z,61.33
2017-07-30T16:00:06.537Z,59.40
2017-07-30T16:02:07.978Z,60.17
2017-07-30T16:04:09.410Z,62.11
2017-07-30T16:06:10.866Z,62.82
2017-07-30T16:08:12.292Z,60.85
2017-07-30T16:10:13.727Z,61.24
2017-07-30T16:12:15.158Z,61.53
2017-07-30T16:14:16.606Z,62.79
2017-07-30T16:16:18.056Z,61.63
2017-07-30T16:18:19.523Z,61.92
2017-07-30T16:20:20.982Z,62.40
2017-07-30T16:22:22.445Z,61.85
2017-07-30T16:24:23.897Z,61.08
2017-07-30T16:26:25.332Z,60.01
2017-07-30T16:28:26.778Z,59.91
2017-07-30T16:30:28.245Z,60.21
2017-07-30T16:32:29.703Z,59.82
2017-07-30T16:34:31.240Z,59.91
2017-07-30T16:36:32.745Z,61.08
2017-07-30T16:38:34.181Z,61.24
2017-07-30T16:40:35.622Z,62.34
2017-07-30T16:42:37.079Z,61.72
2017-07-30T16:44:38.524Z,62.11
2017-07-30T16:46:39.978Z,62.21
2017-07-30T16:48:41.423Z,61.85
2017-07-30T16:50:42.901Z,60.17
2017-07-30T16:52:44.452Z,60.37
2017-07-30T16:54:45.967Z,60.17
2017-07-30T16:56:47.432Z,59.98
2017-07-30T16:58:49.070Z,59.59
2017-07-30T17:00:50.584Z,59.31
2017-07-30T17:02:52.131Z,59.63
2017-07-30T17:04:53.624Z,59.72
2017-07-30T17:06:55.168Z,59.53
2017-07-30T17:08:56.715Z,59.23
2017-07-30T17:10:58.268Z,59.21
2017-07-30T17:12:59.893Z,59.59
2017-07-30T17:15:01.406Z,59.89
2017-07-30T17:17:03.106Z,59.59
2017-07-30T17:19:04.659Z,59.47
2017-07-30T17:21:06.196Z,60.92
2017-07-30T17:23:07.807Z,60.72
2017-07-30T17:25:50.225Z,60.24
2017-07-30T17:27:51.679Z,60.92
2017-07-30T17:29:53.105Z,62.18
2017-07-30T17:31:54.546Z,61.30
2017-07-30T17:33:55.981Z,61.11
2017-07-30T17:35:57.436Z,60.72
2017-07-30T17:37:58.866Z,61.21
2017-07-30T17:40:00.357Z,61.30
2017-07-30T17:42:01.791Z,61.89
2017-07-30T17:44:03.230Z,61.40
2017-07-30T17:46:04.662Z,61.21
2017-07-30T17:48:06.104Z,62.56
2017-07-30T17:50:47.679Z,61.21
2017-07-30T17:52:49.129Z,61.18
2017-07-30T17:54:50.584Z,61.40
2017-07-30T17:56:52.021Z,61.11
2017-07-30T17:58:53.551Z,61.89
2017-07-30T18:00:54.987Z,61.79
2017-07-30T18:02:56.422Z,62.73
2017-07-30T18:04:57.866Z,63.60
2017-07-30T18:06:59.304Z,63.79
2017-07-30T18:09:00.746Z,63.63
2017-07-30T18:11:02.185Z,62.05
2017-07-30T18:13:03.626Z,62.44
2017-07-30T18:15:46.059Z,63.40
2017-07-30T18:17:47.498Z,63.69
2017-07-30T18:19:48.933Z,63.95
2017-07-30T18:21:50.370Z,64.66
2017-07-30T18:23:51.811Z,64.18
2017-07-30T18:25:53.242Z,64.43
2017-07-30T18:27:54.682Z,64.76
2017-07-30T18:29:56.116Z,65.34
2017-07-30T18:31:57.553Z,64.85
2017-07-30T18:33:58.996Z,65.34
2017-07-30T18:36:00.429Z,64.76
2017-07-30T18:38:01.864Z,64.85
2017-07-30T18:40:03.302Z,64.66
2017-07-30T18:42:04.735Z,65.59
2017-07-30T18:44:06.173Z,65.24
2017-07-30T18:46:48.592Z,65.05
2017-07-30T18:48:50.025Z,65.05
2017-07-30T18:50:51.460Z,65.24
2017-07-30T18:52:52.903Z,65.34
2017-07-30T18:54:54.335Z,66.56
2017-07-30T18:56:55.771Z,65.24
2017-07-30T18:58:57.205Z,65.82
2017-07-30T19:00:58.641Z,65.24
2017-07-30T19:03:00.073Z,65.62
2017-07-30T19:05:01.507Z,66.40
2017-07-30T19:07:02.947Z,66.30
2017-07-30T19:09:04.373Z,65.50
2017-07-30T19:11:05.811Z,67.04
2017-07-30T19:13:07.252Z,66.46
2017-07-30T19:15:08.685Z,66.59
2017-07-30T19:17:10.119Z,66.69
2017-07-30T19:19:11.552Z,65.69
2017-07-30T19:21:12.987Z,66.94
2017-07-30T19:23:14.423Z,67.24
2017-07-30T19:25:15.850Z,67.62
2017-07-30T19:27:17.292Z,68.01
2017-07-30T19:29:18.724Z,67.24
2017-07-30T19:31:20.154Z,67.52
2017-07-30T19:33:21.587Z,68.49
2017-07-30T19:35:23.018Z,68.10
2017-07-30T19:37:24.453Z,67.91
2017-07-30T19:39:25.886Z,67.82
2017-07-30T19:41:27.320Z,67.49
2017-07-30T19:43:28.749Z,68.36
2017-07-30T19:45:30.347Z,68.17
2017-07-30T19:47:31.780Z,67.97
2017-07-30T19:49:35.205Z,68.65
2017-07-30T19:51:36.638Z,69.52
2017-07-30T19:53:38.070Z,69.32
2017-07-30T19:55:39.500Z,69.04
2017-07-30T19:57:40.937Z,69.29
2017-07-30T19:59:42.369Z,68.94
2017-07-30T20:01:43.831Z,69.10
2017-07-30T20:03:45.266Z,69.58
2017-07-30T20:05:46.702Z,69.49
2017-07-30T20:07:48.148Z,69.68
2017-07-30T20:09:49.581Z,69.29
2017-07-30T20:11:51.033Z,69.87
2017-07-30T20:13:52.464Z,69.68
2017-07-30T20:15:53.983Z,69.78
2017-07-30T20:17:55.586Z,69.64
2017-07-30T20:19:57.124Z,69.84
2017-07-30T20:21:58.681Z,69.84
2017-07-30T20:24:00.142Z,69.74
2017-07-30T20:26:01.552Z,69.84
2017-07-30T20:28:03.006Z,69.74
2017-07-30T20:30:04.544Z,70.13
2017-07-30T20:32:06.052Z,70.61
2017-07-30T20:34:07.635Z,70.51
2017-07-30T20:36:09.176Z,70.61
2017-07-30T20:38:51.583Z,70.80
2017-07-30T20:40:53.015Z,71.09
2017-07-30T20:42:54.442Z,70.61
2017-07-30T20:44:55.877Z,71.09
2017-07-30T20:46:57.314Z,71.58
2017-07-30T20:48:58.742Z,71.58
2017-07-30T20:51:00.173Z,71.77
2017-07-30T20:53:01.603Z,71.86
2017-07-30T20:55:03.031Z,72.12
2017-07-30T20:57:04.468Z,72.25
2017-07-30T20:59:05.894Z,71.92
2017-07-30T21:01:07.327Z,71.83
2017-07-30T21:03:08.753Z,72.12
2017-07-30T21:05:10.187Z,72.31
2017-07-30T21:07:11.620Z,72.06
2017-07-30T21:09:13.051Z,72.50
2017-07-30T21:11:14.492Z,72.12
2017-07-30T21:13:15.915Z,72.21
2017-07-30T21:15:17.347Z,72.31
2017-07-30T21:17:18.776Z,72.89
2017-07-30T21:19:20.207Z,72.31
2017-07-30T21:21:21.636Z,72.41
2017-07-30T21:23:23.067Z,72.79
2017-07-30T21:25:24.599Z,72.41
2017-07-30T21:27:25.999Z,71.44
2017-07-30T21:29:27.431Z,72.02
2017-07-30T21:31:28.941Z,72.50
2017-07-30T21:33:30.390Z,72.12
2017-07-30T21:35:31.845Z,71.64
2017-07-30T21:37:33.336Z,71.25
2017-07-30T21:40:15.758Z,71.34
2017-07-30T21:42:17.183Z,71.54
2017-07-30T21:44:18.611Z,71.54
2017-07-30T21:46:20.048Z,72.02
2017-07-30T21:48:21.474Z,72.50
2017-07-30T21:50:22.899Z,72.50
2017-07-30T21:52:24.329Z,72.37
2017-07-30T21:54:25.757Z,72.66
2017-07-30T21:56:27.190Z,72.66
2017-07-30T21:58:28.633Z,72.66
2017-07-30T22:00:30.061Z,72.85
2017-07-30T22:03:12.471Z,72.69
2017-07-30T22:05:13.902Z,72.27
2017-07-30T22:07:15.339Z,72.47
2017-07-30T22:09:16.770Z,72.18
2017-07-30T22:11:18.201Z,72.37
2017-07-30T22:13:19.630Z,72.66
2017-07-30T22:15:21.061Z,72.27
2017-07-30T22:17:22.494Z,72.75
2017-07-30T22:19:23.925Z,72.18
2017-07-30T22:21:25.365Z,71.70
2017-07-30T22:23:26.796Z,71.50
2017-07-30T22:25:28.235Z,71.50
2017-07-30T22:27:29.662Z,71.60
2017-07-30T22:29:31.089Z,71.41
2017-07-30T22:31:32.530Z,71.60
2017-07-30T22:33:33.967Z,71.60
2017-07-30T22:35:35.399Z,71.50
2017-07-30T22:37:36.845Z,71.50
2017-07-30T22:39:38.296Z,71.41
2017-07-30T22:41:39.754Z,71.70
2017-07-30T22:43:41.259Z,71.89
2017-07-30T22:45:42.767Z,71.95
2017-07-30T22:47:44.269Z,71.56
2017-07-30T22:49:45.757Z,71.85
2017-07-30T22:51:47.292Z,71.85
2017-07-30T22:53:48.730Z,72.47
2017-07-30T22:55:50.252Z,72.43
2017-07-30T22:57:51.775Z,73.05
2017-07-30T22:59:53.291Z,72.75
2017-07-30T23:01:54.795Z,72.33
2017-07-30T23:04:37.237Z,72.14
2017-07-30T23:06:38.667Z,72.91
2017-07-30T23:08:40.096Z,72.81
2017-07-30T23:10:41.527Z,72.24
2017-07-30T23:12:42.961Z,72.33
2017-07-30T23:14:44.389Z,71.76
2017-07-30T23:16:45.833Z,72.33
2017-07-30T23:18:47.263Z,72.72
2017-07-30T23:20:48.690Z,72.14
2017-07-30T23:22:50.121Z,72.24
2017-07-30T23:24:51.550Z,72.72
2017-07-30T23:26:52.983Z,72.24
2017-07-30T23:28:54.407Z,72.14
2017-07-30T23:30:55.837Z,71.95
2017-07-30T23:32:57.272Z,71.95
2017-07-30T23:34:58.706Z,72.72
2017-07-30T23:37:00.142Z,72.14
2017-07-30T23:39:01.553Z,72.81
2017-07-30T23:41:02.980Z,72.14
2017-07-30T23:43:04.407Z,72.05
2017-07-30T23:45:05.837Z,72.97
2017-07-30T23:47:07.260Z,72.49
2017-07-30T23:49:08.713Z,72.11
2017-07-30T23:51:10.152Z,72.88
2017-07-30T23:53:52.587Z,73.16
2017-07-30T23:55:54.024Z,73.84
2017-07-30T23:57:55.448Z,73.55
2017-07-30T23:59:56.879Z,73.36
